sensor_id;sensor_type;location;lat;lon;timestamp;temperature;humidity
48912;DHT22;34722;52.108;5.044;2023-07-28T01:39:06;18.40;99.90
48912;DHT22;34722;52.108;5.044;2023-07-28T01:41:32;18.40;99.90
48912;DHT22;34722;52.108;5.044;2023-07-28T01:43:58;18.40;99.90
48912;DHT22;34722;52.108;5.044;2023-07-28T01:46:23;18.40;99.90
48912;DHT22;34722;52.108;5.044;2023-07-28T01:48:49;18.50;99.90
48912;DHT22;34722;52.108;5.044;2023-07-28T01:51:17;18.40;99.90
48912;DHT22;34722;52.108;5.044;2023-07-28T01:53:43;18.40;99.90
48912;DHT22;34722;52.108;5.044;2023-07-28T01:56:09;18.40;99.90
48912;DHT22;34722;52.108;5.044;2023-07-28T01:58:35;18.40;99.90
48912;DHT22;34722;52.108;5.044;2023-07-28T02:01:04;18.40;99.90
48912;DHT22;34722;52.108;5.044;2023-07-28T02:03:29;18.40;99.90
48912;DHT22;34722;52.108;5.044;2023-07-28T02:05:55;18.40;99.90
48912;DHT22;34722;52.108;5.044;2023-07-28T02:08:21;18.50;99.90
48912;DHT22;34722;52.108;5.044;2023-07-28T02:10:47;18.40;99.90
48912;DHT22;34722;52.108;5.044;2023-07-28T02:13:15;18.50;99.90
48912;DHT22;34722;52.108;5.044;2023-07-28T02:15:41;18.50;99.90
48912;DHT22;34722;52.108;5.044;2023-07-28T02:18:07;18.50;99.90
48912;DHT22;34722;52.108;5.044;2023-07-28T02:20:33;18.50;99.90
48912;DHT22;34722;52.108;5.044;2023-07-28T02:23:01;18.50;99.90
48912;DHT22;34722;52.108;5.044;2023-07-28T02:25:27;18.50;99.90
48912;DHT22;34722;52.108;5.044;2023-07-28T02:27:53;18.50;99.90
48912;DHT22;34722;52.108;5.044;2023-07-28T02:30:19;18.50;99.90
48912;DHT22;34722;52.108;5.044;2023-07-28T02:32:44;18.50;99.90
48912;DHT22;34722;52.108;5.044;2023-07-28T02:35:10;18.50;99.90
48912;DHT22;34722;52.108;5.044;2023-07-28T02:37:36;18.50;99.90
48912;DHT22;34722;52.108;5.044;2023-07-28T02:40:02;18.60;99.90
48912;DHT22;34722;52.108;5.044;2023-07-28T02:42:28;18.60;99.90
48912;DHT22;34722;52.108;5.044;2023-07-28T02:44:56;18.60;99.90
48912;DHT22;34722;52.108;5.044;2023-07-28T02:47:22;18.60;99.90
48912;DHT22;34722;52.108;5.044;2023-07-28T02:49:56;18.60;99.90
48912;DHT22;34722;52.108;5.044;2023-07-28T02:52:23;18.60;99.90
48912;DHT22;34722;52.108;5.044;2023-07-28T02:54:48;18.60;99.90
48912;DHT22;34722;52.108;5.044;2023-07-28T02:57:18;18.60;99.90
48912;DHT22;34722;52.108;5.044;2023-07-28T02:59:43;18.60;99.90
48912;DHT22;34722;52.108;5.044;2023-07-28T03:02:09;18.60;99.90
48912;DHT22;34722;52.108;5.044;2023-07-28T03:04:35;18.50;99.90
48912;DHT22;34722;52.108;5.044;2023-07-28T03:07:00;18.60;99.90
48912;DHT22;34722;52.108;5.044;2023-07-28T03:09:29;18.60;99.90
48912;DHT22;34722;52.108;5.044;2023-07-28T03:11:55;18.60;99.90
48912;DHT22;34722;52.108;5.044;2023-07-28T03:14:21;18.60;99.90
48912;DHT22;34722;52.108;5.044;2023-07-28T03:16:52;18.60;99.90
48912;DHT22;34722;52.108;5.044;2023-07-28T03:19:18;18.60;99.90
48912;DHT22;34722;52.108;5.044;2023-07-28T03:21:47;18.60;99.90
48912;DHT22;34722;52.108;5.044;2023-07-28T03:24:20;18.60;99.90
48912;DHT22;34722;52.108;5.044;2023-07-28T03:26:46;18.60;99.90
48912;DHT22;34722;52.108;5.044;2023-07-28T03:29:12;18.60;99.90
48912;DHT22;34722;52.108;5.044;2023-07-28T03:31:48;18.60;99.90
48912;DHT22;34722;52.108;5.044;2023-07-28T03:34:37;18.60;99.90
48912;DHT22;34722;52.108;5.044;2023-07-28T03:37:40;18.60;99.90
48912;DHT22;34722;52.108;5.044;2023-07-28T07:27:55;19.60;99.90
48912;DHT22;34722;52.108;5.044;2023-07-28T07:30:51;19.70;99.90
48912;DHT22;34722;52.108;5.044;2023-07-28T07:33:34;19.70;99.90
48912;DHT22;34722;52.108;5.044;2023-07-28T07:39:38;19.80;99.90
48912;DHT22;34722;52.108;5.044;2023-07-28T07:42:08;19.90;99.90
48912;DHT22;34722;52.108;5.044;2023-07-28T07:44:35;20.10;99.90
48912;DHT22;34722;52.108;5.044;2023-07-28T07:50:45;20.50;99.90
48912;DHT22;34722;52.108;5.044;2023-07-28T07:53:11;20.50;99.90
48912;DHT22;34722;52.108;5.044;2023-07-28T07:55:37;20.40;99.90
48912;DHT22;34722;52.108;5.044;2023-07-28T07:58:03;20.60;99.90
48912;DHT22;34722;52.108;5.044;2023-07-28T08:00:29;20.70;99.90
48912;DHT22;34722;52.108;5.044;2023-07-28T08:02:55;20.80;99.90
48912;DHT22;34722;52.108;5.044;2023-07-28T08:05:21;20.80;99.90
48912;DHT22;34722;52.108;5.044;2023-07-28T08:07:48;21.00;99.90
48912;DHT22;34722;52.108;5.044;2023-07-28T08:10:16;21.00;99.90
48912;DHT22;34722;52.108;5.044;2023-07-28T08:12:43;21.20;99.90
48912;DHT22;34722;52.108;5.044;2023-07-28T08:15:20;21.60;99.90
48912;DHT22;34722;52.108;5.044;2023-07-28T08:17:46;21.90;99.90
48912;DHT22;34722;52.108;5.044;2023-07-28T08:20:13;21.80;99.90
48912;DHT22;34722;52.108;5.044;2023-07-28T08:22:39;22.00;99.90
48912;DHT22;34722;52.108;5.044;2023-07-28T08:25:06;21.70;99.90
48912;DHT22;34722;52.108;5.044;2023-07-28T08:27:32;21.60;99.90
48912;DHT22;34722;52.108;5.044;2023-07-28T08:29:58;21.50;99.90
48912;DHT22;34722;52.108;5.044;2023-07-28T08:32:23;21.60;99.90
48912;DHT22;34722;52.108;5.044;2023-07-28T08:34:50;21.80;99.90
48912;DHT22;34722;52.108;5.044;2023-07-28T08:37:18;22.30;99.90
48912;DHT22;34722;52.108;5.044;2023-07-28T08:39:45;23.20;99.90
48912;DHT22;34722;52.108;5.044;2023-07-28T08:42:11;23.70;99.90
48912;DHT22;34722;52.108;5.044;2023-07-28T08:44:37;24.00;99.90
48912;DHT22;34722;52.108;5.044;2023-07-28T08:47:04;24.10;99.90
48912;DHT22;34722;52.108;5.044;2023-07-28T08:49:30;24.00;99.90
48912;DHT22;34722;52.108;5.044;2023-07-28T08:52:17;24.30;99.90
48912;DHT22;34722;52.108;5.044;2023-07-28T08:54:43;25.00;99.90
48912;DHT22;34722;52.108;5.044;2023-07-28T08:57:10;25.00;99.90
48912;DHT22;34722;52.108;5.044;2023-07-28T08:59:36;25.10;99.90
48912;DHT22;34722;52.108;5.044;2023-07-28T09:02:04;25.00;99.90
48912;DHT22;34722;52.108;5.044;2023-07-28T09:04:32;24.70;99.90
48912;DHT22;34722;52.108;5.044;2023-07-28T09:06:58;25.20;99.90
48912;DHT22;34722;52.108;5.044;2023-07-28T09:09:24;26.00;99.90
48912;DHT22;34722;52.108;5.044;2023-07-28T09:11:56;26.50;99.90
48912;DHT22;34722;52.108;5.044;2023-07-28T09:14:23;25.90;99.90
48912;DHT22;34722;52.108;5.044;2023-07-28T09:16:50;25.90;99.90
48912;DHT22;34722;52.108;5.044;2023-07-28T09:19:15;26.30;99.90
48912;DHT22;34722;52.108;5.044;2023-07-28T09:21:59;26.90;99.90
48912;DHT22;34722;52.108;5.044;2023-07-28T09:24:31;28.00;47.40
48912;DHT22;34722;52.108;5.044;2023-07-28T09:26:59;28.30;99.90
48912;DHT22;34722;52.108;5.044;2023-07-28T09:29:28;27.80;1.00
48912;DHT22;34722;52.108;5.044;2023-07-28T09:32:04;26.90;99.90
48912;DHT22;34722;52.108;5.044;2023-07-28T09:34:33;26.20;1.00
48912;DHT22;34722;52.108;5.044;2023-07-28T09:37:05;27.50;99.90
48912;DHT22;34722;52.108;5.044;2023-07-28T09:39:33;27.90;1.00
48912;DHT22;34722;52.108;5.044;2023-07-28T09:42:01;27.40;1.00
48912;DHT22;34722;52.108;5.044;2023-07-28T09:44:27;26.90;1.00
48912;DHT22;34722;52.108;5.044;2023-07-28T09:46:55;26.90;1.00
48912;DHT22;34722;52.108;5.044;2023-07-28T09:49:30;27.00;1.00
48912;DHT22;34722;52.108;5.044;2023-07-28T09:52:09;26.90;99.90
48912;DHT22;34722;52.108;5.044;2023-07-28T09:55:05;26.70;1.00
48912;DHT22;34722;52.108;5.044;2023-07-28T09:57:41;25.90;1.00
48912;DHT22;34722;52.108;5.044;2023-07-28T10:00:15;25.70;38.30
48912;DHT22;34722;52.108;5.044;2023-07-28T10:02:43;25.20;99.50
48912;DHT22;34722;52.108;5.044;2023-07-28T10:05:11;24.90;99.90
48912;DHT22;34722;52.108;5.044;2023-07-28T10:07:43;24.40;99.90
48912;DHT22;34722;52.108;5.044;2023-07-28T10:10:11;23.90;99.90
48912;DHT22;34722;52.108;5.044;2023-07-28T10:12:48;23.90;99.90
48912;DHT22;34722;52.108;5.044;2023-07-28T10:15:19;23.80;99.90
48912;DHT22;34722;52.108;5.044;2023-07-28T10:17:50;23.60;99.90
48912;DHT22;34722;52.108;5.044;2023-07-28T10:22:53;23.50;99.90
48912;DHT22;34722;52.108;5.044;2023-07-28T10:25:23;23.30;99.90
48912;DHT22;34722;52.108;5.044;2023-07-28T10:27:51;23.20;99.90
48912;DHT22;34722;52.108;5.044;2023-07-28T10:30:17;23.20;99.90
48912;DHT22;34722;52.108;5.044;2023-07-28T10:32:44;23.30;99.90
48912;DHT22;34722;52.108;5.044;2023-07-28T10:37:45;23.70;99.90
48912;DHT22;34722;52.108;5.044;2023-07-28T10:40:30;24.00;99.90
48912;DHT22;34722;52.108;5.044;2023-07-28T10:42:57;24.30;99.90
48912;DHT22;34722;52.108;5.044;2023-07-28T10:45:25;24.40;99.90
48912;DHT22;34722;52.108;5.044;2023-07-28T10:47:53;24.50;99.90
48912;DHT22;34722;52.108;5.044;2023-07-28T10:50:28;24.50;99.90
48912;DHT22;34722;52.108;5.044;2023-07-28T10:52:54;24.50;99.90
48912;DHT22;34722;52.108;5.044;2023-07-28T10:55:22;24.60;99.90
48912;DHT22;34722;52.108;5.044;2023-07-28T10:57:54;24.90;99.90
48912;DHT22;34722;52.108;5.044;2023-07-28T11:00:22;25.30;99.90
48912;DHT22;34722;52.108;5.044;2023-07-28T11:02:49;25.60;99.90
48912;DHT22;34722;52.108;5.044;2023-07-28T11:05:21;26.30;99.90
48912;DHT22;34722;52.108;5.044;2023-07-28T11:07:57;26.40;1.00
48912;DHT22;34722;52.108;5.044;2023-07-28T11:10:23;25.70;1.00
48912;DHT22;34722;52.108;5.044;2023-07-28T11:12:51;24.80;38.40
48912;DHT22;34722;52.108;5.044;2023-07-28T11:15:18;24.40;99.90
48912;DHT22;34722;52.108;5.044;2023-07-28T11:17:48;24.10;99.90
48912;DHT22;34722;52.108;5.044;2023-07-28T11:20:20;23.70;99.90
48912;DHT22;34722;52.108;5.044;2023-07-28T11:22:51;23.40;99.90
48912;DHT22;34722;52.108;5.044;2023-07-28T11:25:24;23.10;99.90
48912;DHT22;34722;52.108;5.044;2023-07-28T11:27:50;23.00;99.90
48912;DHT22;34722;52.108;5.044;2023-07-28T11:30:18;22.70;99.90
48912;DHT22;34722;52.108;5.044;2023-07-28T11:32:45;22.80;99.90
48912;DHT22;34722;52.108;5.044;2023-07-28T11:35:13;22.90;99.90
48912;DHT22;34722;52.108;5.044;2023-07-28T11:37:40;23.20;99.90
48912;DHT22;34722;52.108;5.044;2023-07-28T11:40:08;23.30;99.90
48912;DHT22;34722;52.108;5.044;2023-07-28T11:42:41;23.50;99.90
48912;DHT22;34722;52.108;5.044;2023-07-28T11:45:07;23.60;99.90
48912;DHT22;34722;52.108;5.044;2023-07-28T11:47:35;23.70;99.90
48912;DHT22;34722;52.108;5.044;2023-07-28T11:50:01;24.70;99.90
48912;DHT22;34722;52.108;5.044;2023-07-28T11:52:32;25.20;99.90
48912;DHT22;34722;52.108;5.044;2023-07-28T11:55:07;25.80;99.90
48912;DHT22;34722;52.108;5.044;2023-07-28T11:57:37;26.30;99.90
48912;DHT22;34722;52.108;5.044;2023-07-28T12:00:04;26.00;1.00
48912;DHT22;34722;52.108;5.044;2023-07-28T12:02:32;25.90;1.00
48912;DHT22;34722;52.108;5.044;2023-07-28T12:04:59;25.80;8.90
48912;DHT22;34722;52.108;5.044;2023-07-28T12:07:29;25.80;1.00
48912;DHT22;34722;52.108;5.044;2023-07-28T12:10:05;25.60;10.10
48912;DHT22;34722;52.108;5.044;2023-07-28T12:12:56;25.40;1.00
48912;DHT22;34722;52.108;5.044;2023-07-28T12:15:29;25.40;24.50
48912;DHT22;34722;52.108;5.044;2023-07-28T12:18:09;25.60;1.00
48912;DHT22;34722;52.108;5.044;2023-07-28T12:20:35;26.00;1.00
48912;DHT22;34722;52.108;5.044;2023-07-28T12:23:02;27.30;99.90
48912;DHT22;34722;52.108;5.044;2023-07-28T12:25:29;29.40;1.00
48912;DHT22;34722;52.108;5.044;2023-07-28T12:27:55;29.00;1.00
48912;DHT22;34722;52.108;5.044;2023-07-28T12:30:21;28.30;99.90
48912;DHT22;34722;52.108;5.044;2023-07-28T12:32:47;27.30;1.00
48912;DHT22;34722;52.108;5.044;2023-07-28T12:35:12;26.30;99.90
48912;DHT22;34722;52.108;5.044;2023-07-28T12:37:38;25.90;99.90
48912;DHT22;34722;52.108;5.044;2023-07-28T12:40:05;25.70;99.90
48912;DHT22;34722;52.108;5.044;2023-07-28T12:42:31;25.90;99.90
48912;DHT22;34722;52.108;5.044;2023-07-28T12:44:57;25.90;1.00
48912;DHT22;34722;52.108;5.044;2023-07-28T12:47:23;26.00;99.90
48912;DHT22;34722;52.108;5.044;2023-07-28T12:49:49;25.90;99.90
48912;DHT22;34722;52.108;5.044;2023-07-28T12:52:15;25.90;99.90
48912;DHT22;34722;52.108;5.044;2023-07-28T12:54:41;25.70;1.00
48912;DHT22;34722;52.108;5.044;2023-07-28T12:57:08;25.60;99.90
48912;DHT22;34722;52.108;5.044;2023-07-28T12:59:36;25.70;1.00
48912;DHT22;34722;52.108;5.044;2023-07-28T13:02:05;25.90;1.00
48912;DHT22;34722;52.108;5.044;2023-07-28T13:04:33;25.80;1.00
48912;DHT22;34722;52.108;5.044;2023-07-28T13:06:59;25.70;99.90
48912;DHT22;34722;52.108;5.044;2023-07-28T13:09:28;25.50;1.00
48912;DHT22;34722;52.108;5.044;2023-07-28T13:11:53;25.20;1.00
48912;DHT22;34722;52.108;5.044;2023-07-28T13:14:22;25.10;1.00
48912;DHT22;34722;52.108;5.044;2023-07-28T13:16:51;25.10;1.00
48912;DHT22;34722;52.108;5.044;2023-07-28T13:19:17;25.30;1.00
48912;DHT22;34722;52.108;5.044;2023-07-28T13:21:43;25.40;1.00
48912;DHT22;34722;52.108;5.044;2023-07-28T13:24:08;25.70;1.00
48912;DHT22;34722;52.108;5.044;2023-07-28T13:26:34;25.70;99.90
48912;DHT22;34722;52.108;5.044;2023-07-28T13:29:02;25.80;89.30
48912;DHT22;34722;52.108;5.044;2023-07-28T13:31:28;26.10;99.90
48912;DHT22;34722;52.108;5.044;2023-07-28T13:33:54;26.10;99.90
48912;DHT22;34722;52.108;5.044;2023-07-28T13:36:22;26.20;99.90
48912;DHT22;34722;52.108;5.044;2023-07-28T13:38:48;26.50;1.00
48912;DHT22;34722;52.108;5.044;2023-07-28T13:41:14;26.40;1.00
48912;DHT22;34722;52.108;5.044;2023-07-28T13:43:49;26.70;99.90
48912;DHT22;34722;52.108;5.044;2023-07-28T13:46:18;26.80;1.00
48912;DHT22;34722;52.108;5.044;2023-07-28T13:48:44;26.60;99.90
48912;DHT22;34722;52.108;5.044;2023-07-28T13:51:10;26.40;99.90
48912;DHT22;34722;52.108;5.044;2023-07-28T13:53:35;26.30;99.90
48912;DHT22;34722;52.108;5.044;2023-07-28T13:56:01;25.90;1.00
48912;DHT22;34722;52.108;5.044;2023-07-28T13:58:27;26.00;99.90
48912;DHT22;34722;52.108;5.044;2023-07-28T14:00:53;25.90;1.00
48912;DHT22;34722;52.108;5.044;2023-07-28T14:03:18;25.90;1.00
48912;DHT22;34722;52.108;5.044;2023-07-28T14:05:44;25.70;99.90
48912;DHT22;34722;52.108;5.044;2023-07-28T14:08:12;25.50;99.90
48912;DHT22;34722;52.108;5.044;2023-07-28T14:10:38;25.20;1.00
48912;DHT22;34722;52.108;5.044;2023-07-28T14:13:04;25.30;1.00
48912;DHT22;34722;52.108;5.044;2023-07-28T14:15:30;25.60;1.00
48912;DHT22;34722;52.108;5.044;2023-07-28T14:17:55;25.70;1.00
48912;DHT22;34722;52.108;5.044;2023-07-28T14:20:21;25.60;99.90
48912;DHT22;34722;52.108;5.044;2023-07-28T14:22:47;25.50;1.00
48912;DHT22;34722;52.108;5.044;2023-07-28T14:25:13;25.30;3.50
48912;DHT22;34722;52.108;5.044;2023-07-28T14:27:42;25.10;15.10
48912;DHT22;34722;52.108;5.044;2023-07-28T14:30:10;24.80;66.30
48912;DHT22;34722;52.108;5.044;2023-07-28T14:32:36;24.50;61.80
48912;DHT22;34722;52.108;5.044;2023-07-28T14:35:05;24.10;99.90
48912;DHT22;34722;52.108;5.044;2023-07-28T14:37:31;23.70;99.90
48912;DHT22;34722;52.108;5.044;2023-07-28T14:40:05;23.30;99.90
48912;DHT22;34722;52.108;5.044;2023-07-28T14:42:34;23.10;99.90
48912;DHT22;34722;52.108;5.044;2023-07-28T14:45:18;23.10;99.90
48912;DHT22;34722;52.108;5.044;2023-07-28T14:47:46;23.40;99.90
48912;DHT22;34722;52.108;5.044;2023-07-28T14:50:14;23.80;99.90
48912;DHT22;34722;52.108;5.044;2023-07-28T14:52:39;24.10;99.90
48912;DHT22;34722;52.108;5.044;2023-07-28T14:55:06;24.10;99.90
48912;DHT22;34722;52.108;5.044;2023-07-28T14:57:31;24.10;99.90
48912;DHT22;34722;52.108;5.044;2023-07-28T14:59:57;24.30;99.90
48912;DHT22;34722;52.108;5.044;2023-07-28T15:02:23;24.30;99.90
48912;DHT22;34722;52.108;5.044;2023-07-28T15:04:48;24.30;99.90
48912;DHT22;34722;52.108;5.044;2023-07-28T15:07:17;24.30;99.90
48912;DHT22;34722;52.108;5.044;2023-07-28T15:09:44;24.10;99.90
48912;DHT22;34722;52.108;5.044;2023-07-28T15:12:10;24.10;99.90
48912;DHT22;34722;52.108;5.044;2023-07-28T15:14:35;24.00;99.90
48912;DHT22;34722;52.108;5.044;2023-07-28T15:17:01;23.80;99.90
48912;DHT22;34722;52.108;5.044;2023-07-28T15:19:27;23.60;99.90
48912;DHT22;34722;52.108;5.044;2023-07-28T15:21:53;23.30;99.90
48912;DHT22;34722;52.108;5.044;2023-07-28T15:24:18;23.10;99.90
48912;DHT22;34722;52.108;5.044;2023-07-28T15:26:47;22.70;99.90
48912;DHT22;34722;52.108;5.044;2023-07-28T15:29:15;22.50;99.90
48912;DHT22;34722;52.108;5.044;2023-07-28T15:31:41;22.30;99.90
48912;DHT22;34722;52.108;5.044;2023-07-28T21:38:08;18.00;99.90
48912;DHT22;34722;52.108;5.044;2023-07-28T21:40:35;18.00;99.90
48912;DHT22;34722;52.108;5.044;2023-07-28T21:43:01;17.90;99.90
48912;DHT22;34722;52.108;5.044;2023-07-28T21:45:31;17.90;99.90
48912;DHT22;34722;52.108;5.044;2023-07-28T21:51:23;17.70;99.90
48912;DHT22;34722;52.108;5.044;2023-07-28T21:53:50;17.70;99.90
48912;DHT22;34722;52.108;5.044;2023-07-28T21:56:18;17.70;99.90
48912;DHT22;34722;52.108;5.044;2023-07-28T21:59:02;17.70;99.90
48912;DHT22;34722;52.108;5.044;2023-07-28T22:01:28;17.70;99.90
48912;DHT22;34722;52.108;5.044;2023-07-28T22:03:57;17.70;99.90
48912;DHT22;34722;52.108;5.044;2023-07-28T22:06:23;17.70;99.90
48912;DHT22;34722;52.108;5.044;2023-07-28T22:08:52;17.60;99.90
48912;DHT22;34722;52.108;5.044;2023-07-28T22:11:18;17.50;99.90
48912;DHT22;34722;52.108;5.044;2023-07-28T22:13:45;17.50;99.90
48912;DHT22;34722;52.108;5.044;2023-07-28T22:16:11;17.50;99.90
48912;DHT22;34722;52.108;5.044;2023-07-28T22:18:37;17.40;99.90
48912;DHT22;34722;52.108;5.044;2023-07-28T22:21:04;17.40;99.90
48912;DHT22;34722;52.108;5.044;2023-07-28T22:23:30;17.40;99.90
48912;DHT22;34722;52.108;5.044;2023-07-28T22:25:56;17.40;99.90
48912;DHT22;34722;52.108;5.044;2023-07-28T22:28:23;17.40;99.90
48912;DHT22;34722;52.108;5.044;2023-07-28T22:30:50;17.40;99.90
48912;DHT22;34722;52.108;5.044;2023-07-28T22:33:17;17.40;99.90
48912;DHT22;34722;52.108;5.044;2023-07-28T22:35:44;17.40;99.90
48912;DHT22;34722;52.108;5.044;2023-07-28T22:38:11;17.30;99.90
48912;DHT22;34722;52.108;5.044;2023-07-28T22:40:38;17.30;99.90
48912;DHT22;34722;52.108;5.044;2023-07-28T22:43:36;17.30;99.90
48912;DHT22;34722;52.108;5.044;2023-07-28T22:46:23;17.30;99.90
48912;DHT22;34722;52.108;5.044;2023-07-28T22:48:50;17.30;99.90
48912;DHT22;34722;52.108;5.044;2023-07-28T22:51:16;17.20;99.90
48912;DHT22;34722;52.108;5.044;2023-07-28T22:53:43;17.20;99.90
48912;DHT22;34722;52.108;5.044;2023-07-28T22:56:09;17.10;99.90
